createdAt,value
2023-01-10T00:03:19.746Z,100246.63
2023-01-10T00:07:21.221Z,100258.19
2023-01-10T00:11:41.857Z,100256.84
2023-01-10T00:15:43.416Z,100262.63
2023-01-10T00:19:44.953Z,100266.41
2023-01-10T00:23:48.874Z,100271.09
2023-01-10T00:28:16.241Z,100269.72
2023-01-10T00:32:18.627Z,100263.53
2023-01-10T00:36:22.162Z,100275.78
2023-01-10T00:40:24.036Z,100272.97
2023-01-10T00:44:26.048Z,100287.63
2023-01-10T00:48:27.561Z,100291.19
2023-01-10T00:52:29.004Z,100296.34
2023-01-10T00:56:30.542Z,100295.84
2023-01-10T01:00:32.198Z,100306.91
2023-01-10T01:04:34.502Z,100318.47
2023-01-10T01:08:36.229Z,100323.44
2023-01-10T01:12:37.671Z,100327.44
2023-01-10T01:16:39.179Z,100333.25
2023-01-10T01:20:42.103Z,100340.19
2023-01-10T01:24:43.561Z,100350.72
2023-01-10T01:28:44.991Z,100356.34
2023-01-10T01:32:46.490Z,100368.13
2023-01-10T01:36:48.233Z,100379.38
2023-01-10T01:40:49.691Z,100395.66
2023-01-10T01:45:09.413Z,100410.59
2023-01-10T01:49:16.586Z,100406.03
2023-01-10T01:53:36.253Z,100411.03
2023-01-10T01:57:38.055Z,100419.09
2023-01-10T02:01:42.517Z,100434.25
2023-01-10T02:05:45.243Z,100423.78
2023-01-10T02:09:59.409Z,100430.13
2023-01-10T02:14:04.960Z,100430.50
2023-01-10T02:18:07.208Z,100446.59
2023-01-10T02:22:27.458Z,100445.03
2023-01-10T02:27:01.132Z,100452.09
2023-01-10T02:31:24.119Z,100457.72
2023-01-10T02:36:06.929Z,100458.13
2023-01-10T02:40:21.027Z,100467.78
2023-01-10T02:44:45.397Z,100461.28
2023-01-10T02:48:46.844Z,100475.28
2023-01-10T02:52:48.352Z,100485.69
2023-01-10T02:57:15.366Z,100484.69
2023-01-10T03:01:59.342Z,100490.69
2023-01-10T03:06:35.212Z,100492.19
2023-01-10T03:10:41.658Z,100507.88
2023-01-10T03:14:46.351Z,100522.97
2023-01-10T03:18:54.257Z,100530.16
2023-01-10T03:22:56.018Z,100543.00
2023-01-10T03:27:07.548Z,100545.53
2023-01-10T03:31:16.071Z,100557.75
2023-01-10T03:35:20.753Z,100564.59
2023-01-10T03:39:39.953Z,100572.00
2023-01-10T03:44:03.412Z,100573.53
2023-01-10T03:48:07.598Z,100590.47
2023-01-10T03:52:13.481Z,100596.03
2023-01-10T03:56:15.670Z,100594.72
2023-01-10T04:00:17.824Z,100606.56
2023-01-10T04:04:19.285Z,100618.72
2023-01-10T04:08:20.776Z,100627.31
2023-01-10T04:12:22.231Z,100638.22
2023-01-10T04:16:23.746Z,100645.53
2023-01-10T04:20:27.203Z,100658.69
2023-01-10T04:24:28.650Z,100661.38
2023-01-10T04:28:30.103Z,100661.19
2023-01-10T04:32:31.565Z,100680.56
2023-01-10T04:36:33.303Z,100682.50
2023-01-10T04:40:34.718Z,100698.09
2023-01-10T04:44:36.201Z,100707.34
2023-01-10T04:48:37.655Z,100709.22
2023-01-10T04:52:40.990Z,100725.34
2023-01-10T04:56:42.477Z,100735.19
2023-01-10T05:00:43.899Z,100758.97
2023-01-10T05:04:45.322Z,100757.50
2023-01-10T05:08:47.094Z,100769.16
2023-01-10T05:12:48.531Z,100763.81
2023-01-10T05:16:50.044Z,100781.50
2023-01-10T05:20:51.499Z,100790.53
2023-01-10T05:24:54.640Z,100804.75
2023-01-10T05:28:56.235Z,100813.22
2023-01-10T05:32:57.677Z,100813.72
2023-01-10T05:36:59.116Z,100831.72
2023-01-10T05:41:01.284Z,100821.00
2023-01-10T05:45:03.443Z,100843.84
2023-01-10T05:49:04.981Z,100839.19
2023-01-10T05:53:07.236Z,100841.19
2023-01-10T05:57:08.707Z,100842.53
2023-01-10T06:01:10.635Z,100854.38
2023-01-10T06:05:12.088Z,100858.88
2023-01-10T06:09:13.537Z,100875.69
2023-01-10T06:13:15.285Z,100887.06
2023-01-10T06:17:16.804Z,100901.31
2023-01-10T06:21:18.388Z,100905.38
2023-01-10T06:25:19.853Z,100915.72
2023-01-10T06:29:21.365Z,100924.88
2023-01-10T06:33:22.785Z,100918.88
2023-01-10T06:37:24.226Z,100934.28
2023-01-10T06:41:25.786Z,100945.94
2023-01-10T06:45:27.600Z,100956.34
2023-01-10T06:49:29.890Z,100962.16
2023-01-10T06:53:32.460Z,100971.88
2023-01-10T06:57:38.247Z,100984.38
2023-01-10T07:01:39.950Z,100991.66
2023-01-10T07:05:41.499Z,100981.78
2023-01-10T07:09:43.006Z,101000.75
2023-01-10T07:13:44.496Z,101003.66
2023-01-10T07:17:45.946Z,101006.09
2023-01-10T07:21:47.409Z,101015.94
2023-01-10T07:25:48.846Z,101028.75
2023-01-10T07:29:50.275Z,101031.19
2023-01-10T07:33:52.344Z,101037.50
2023-01-10T07:37:53.994Z,101038.66
2023-01-10T07:41:56.231Z,101055.81
2023-01-10T07:46:02.749Z,101060.66
2023-01-10T07:50:04.644Z,101063.91
2023-01-10T07:54:06.243Z,101074.44
2023-01-10T07:58:08.027Z,101088.03
2023-01-10T08:02:11.223Z,101108.13
2023-01-10T08:06:14.233Z,101104.25
2023-01-10T08:10:17.062Z,101113.00
2023-01-10T08:14:18.620Z,101110.56
2023-01-10T08:18:21.777Z,101121.91
2023-01-10T08:22:23.178Z,101118.81
2023-01-10T08:26:24.652Z,101139.88
2023-01-10T08:30:26.158Z,101147.47
2023-01-10T08:34:27.764Z,101147.88
2023-01-10T08:38:29.369Z,101157.16
2023-01-10T08:42:30.958Z,101161.56
2023-01-10T08:46:32.704Z,101163.00
2023-01-10T08:50:34.333Z,101171.50
2023-01-10T08:54:35.822Z,101170.72
2023-01-10T08:58:37.259Z,101187.41
2023-01-10T09:02:42.082Z,101193.69
2023-01-10T09:06:43.594Z,101194.91
2023-01-10T09:10:45.130Z,101198.81
2023-01-10T09:14:46.683Z,101198.81
2023-01-10T09:18:48.255Z,101207.25
2023-01-10T09:22:49.748Z,101205.88
2023-01-10T09:26:51.220Z,101203.34
2023-01-10T09:30:53.282Z,101219.25
2023-01-10T09:34:54.706Z,101230.53
2023-01-10T09:38:56.154Z,101228.13
2023-01-10T09:43:10.339Z,101234.88
2023-01-10T09:47:23.874Z,101237.03
2023-01-10T09:51:25.347Z,101241.66
2023-01-10T09:55:33.640Z,101244.03
2023-01-10T09:59:41.650Z,101237.72
2023-01-10T10:04:00.449Z,101247.31
2023-01-10T10:08:02.600Z,101241.28
2023-01-10T10:12:04.053Z,101229.22
2023-01-10T10:16:25.251Z,101240.47
2023-01-10T10:20:49.360Z,101230.78
2023-01-10T10:25:15.667Z,101237.03
2023-01-10T10:29:22.809Z,101243.72
2023-01-10T10:34:05.222Z,101241.94
2023-01-10T10:38:18.455Z,101258.66
2023-01-10T10:42:20.149Z,101267.06
2023-01-10T10:46:22.426Z,101255.75
2023-01-10T10:50:58.112Z,101262.88
2023-01-10T10:54:59.622Z,101272.28
2023-01-10T10:59:01.328Z,101274.88
2023-01-10T11:03:13.294Z,101293.72
2023-01-10T11:07:17.488Z,101302.94
2023-01-10T11:11:33.898Z,101293.22
2023-01-10T11:15:37.406Z,101281.34
2023-01-10T11:19:38.843Z,101266.47
2023-01-10T11:23:42.710Z,101262.78
2023-01-10T11:27:51.561Z,101260.56
2023-01-10T11:31:55.953Z,101272.88
2023-01-10T11:36:09.265Z,101274.19
2023-01-10T11:40:30.068Z,101272.56
2023-01-10T11:44:31.581Z,101270.38
2023-01-10T11:49:03.757Z,101292.88
2023-01-10T11:53:05.315Z,101292.03
2023-01-10T11:57:19.547Z,101290.31
2023-01-10T12:01:27.332Z,101300.00
2023-01-10T12:05:29.261Z,101297.81
2023-01-10T12:09:32.735Z,101295.34
2023-01-10T12:13:50.446Z,101294.06
2023-01-10T12:17:53.107Z,101286.59
2023-01-10T12:21:59.537Z,101281.72
2023-01-10T12:26:11.470Z,101288.88
2023-01-10T12:30:24.981Z,101283.56
2023-01-10T12:34:39.758Z,101296.03
2023-01-10T12:39:03.900Z,101295.16
2023-01-10T12:43:48.718Z,101306.03
2023-01-10T12:48:08.444Z,101321.00
2023-01-10T12:52:18.132Z,101332.16
2023-01-10T12:56:20.249Z,101329.88
2023-01-10T13:00:32.794Z,101338.56
2023-01-10T13:04:39.471Z,101341.28
2023-01-10T13:08:43.284Z,101341.81
2023-01-10T13:12:50.003Z,101347.59
2023-01-10T13:17:21.822Z,101357.91
2023-01-10T13:21:23.311Z,101362.66
2023-01-10T13:25:30.362Z,101356.78
2023-01-10T13:29:40.671Z,101363.00
2023-01-10T13:33:55.445Z,101368.66
2023-01-10T13:37:57.103Z,101367.06
2023-01-10T13:42:17.066Z,101368.38
2023-01-10T13:46:18.613Z,101373.91
2023-01-10T13:50:23.223Z,101363.00
2023-01-10T13:54:28.357Z,101366.56
2023-01-10T13:59:00.002Z,101365.41
2023-01-10T14:03:01.548Z,101375.03
2023-01-10T14:07:23.135Z,101371.59
2023-01-10T14:12:01.781Z,101373.56
2023-01-10T14:16:05.163Z,101379.88
2023-01-10T14:20:12.906Z,101386.19
2023-01-10T14:24:32.032Z,101385.56
2023-01-10T14:28:35.387Z,101387.06
2023-01-10T14:32:43.615Z,101383.47
2023-01-10T14:36:53.625Z,101381.66
2023-01-10T14:41:00.450Z,101379.59
2023-01-10T14:45:14.176Z,101384.94
2023-01-10T14:49:35.479Z,101381.34
2023-01-10T14:53:36.932Z,101384.09
2023-01-10T14:57:38.626Z,101381.78
2023-01-10T15:01:40.296Z,101379.53
2023-01-10T15:05:51.827Z,101382.78
2023-01-10T15:09:57.181Z,101384.34
2023-01-10T15:14:08.103Z,101375.41
2023-01-10T15:18:27.940Z,101380.34
2023-01-10T15:22:32.716Z,101387.94
2023-01-10T15:26:34.275Z,101387.31
2023-01-10T15:30:37.406Z,101391.44
2023-01-10T15:34:39.672Z,101394.59
2023-01-10T15:38:45.744Z,101385.59
2023-01-10T15:42:47.597Z,101401.41
2023-01-10T15:46:58.028Z,101403.50
2023-01-10T15:51:10.586Z,101398.53
2023-01-10T15:55:34.942Z,101406.13
2023-01-10T15:59:39.729Z,101407.66
2023-01-10T16:03:48.042Z,101400.81
2023-01-10T16:07:49.878Z,101403.56
2023-01-10T16:12:12.272Z,101406.47
2023-01-10T16:16:18.670Z,101393.00
2023-01-10T16:20:30.701Z,101390.34
2023-01-10T16:24:35.517Z,101393.66
2023-01-10T16:28:37.922Z,101385.72
2023-01-10T16:32:39.346Z,101383.34
2023-01-10T16:36:43.015Z,101385.56
2023-01-10T16:40:48.842Z,101387.97
2023-01-10T16:44:50.250Z,101386.97
2023-01-10T16:48:53.265Z,101387.75
2023-01-10T16:52:54.796Z,101394.84
2023-01-10T16:56:56.224Z,101403.91
2023-01-10T17:00:58.928Z,101397.03
2023-01-10T17:05:00.417Z,101401.44
2023-01-10T17:09:01.924Z,101383.91
2023-01-10T17:13:04.702Z,101388.34
2023-01-10T17:17:06.176Z,101387.66
2023-01-10T17:21:14.365Z,101386.59
2023-01-10T17:25:20.905Z,101383.91
2023-01-10T17:29:23.376Z,101390.16
2023-01-10T17:33:26.069Z,101392.81
2023-01-10T17:37:27.569Z,101395.22
2023-01-10T17:41:29.086Z,101402.06
2023-01-10T17:45:30.800Z,101390.56
2023-01-10T17:49:32.439Z,101400.97
2023-01-10T17:53:34.126Z,101393.31
2023-01-10T17:57:38.174Z,101394.25
2023-01-10T18:01:39.932Z,101394.47
2023-01-10T18:06:02.054Z,101395.19
2023-01-10T18:10:04.146Z,101395.13
2023-01-10T18:14:24.073Z,101395.19
2023-01-10T18:18:27.705Z,101392.16
2023-01-10T18:22:47.689Z,101391.38
2023-01-10T18:26:49.618Z,101388.97
2023-01-10T18:30:51.231Z,101386.06
2023-01-10T18:34:52.706Z,101388.75
2023-01-10T18:38:54.236Z,101380.84
2023-01-10T18:42:57.529Z,101382.97
2023-01-10T18:46:58.977Z,101377.63
2023-01-10T18:51:02.092Z,101375.38
2023-01-10T18:55:03.885Z,101365.06
2023-01-10T18:59:05.394Z,101372.53
2023-01-10T19:03:07.495Z,101363.38
2023-01-10T19:07:08.993Z,101367.16
2023-01-10T19:11:16.451Z,101351.59
2023-01-10T19:15:18.291Z,101359.63
2023-01-10T19:19:19.739Z,101368.78
2023-01-10T19:23:21.204Z,101356.47
2023-01-10T19:27:22.749Z,101347.41
2023-01-10T19:31:27.523Z,101343.75
2023-01-10T19:35:34.385Z,101349.66
2023-01-10T19:39:36.562Z,101334.59
2023-01-10T19:43:38.100Z,101332.34
2023-01-10T19:47:39.549Z,101323.91
2023-01-10T19:51:41.126Z,101326.75
2023-01-10T19:55:42.695Z,101325.34
2023-01-10T19:59:45.414Z,101315.78
2023-01-10T20:03:47.753Z,101314.97
2023-01-10T20:07:50.679Z,101311.09
2023-01-10T20:11:52.277Z,101310.06
2023-01-10T20:15:54.088Z,101307.03
2023-01-10T20:19:56.132Z,101288.09
2023-01-10T20:23:57.575Z,101285.25
2023-01-10T20:27:59.023Z,101291.34
2023-01-10T20:32:02.457Z,101291.19
2023-01-10T20:36:06.905Z,101293.72
2023-01-10T20:40:09.765Z,101287.59
2023-01-10T20:44:11.254Z,101281.50
2023-01-10T20:48:12.691Z,101275.91
2023-01-10T20:52:14.170Z,101281.69
2023-01-10T20:56:19.170Z,101274.50
2023-01-10T21:00:20.931Z,101276.94
2023-01-10T21:04:22.330Z,101272.41
2023-01-10T21:08:23.987Z,101274.84
2023-01-10T21:12:27.739Z,101276.84
2023-01-10T21:16:29.268Z,101261.03
2023-01-10T21:20:30.741Z,101258.28
2023-01-10T21:24:32.191Z,101265.06
2023-01-10T21:28:38.740Z,101255.84
2023-01-10T21:32:40.311Z,101251.19
2023-01-10T21:36:42.554Z,101244.34
2023-01-10T21:40:43.987Z,101242.03
2023-01-10T21:44:45.447Z,101235.31
2023-01-10T21:48:46.940Z,101229.50
2023-01-10T21:52:48.468Z,101222.50
2023-01-10T21:56:49.922Z,101211.75
2023-01-10T22:00:55.442Z,101198.03
2023-01-10T22:04:57.084Z,101198.22
2023-01-10T22:08:58.573Z,101204.72
2023-01-10T22:13:00.098Z,101202.09
2023-01-10T22:17:02.256Z,101204.16
2023-01-10T22:21:03.732Z,101205.13
2023-01-10T22:25:05.783Z,101188.78
2023-01-10T22:29:07.285Z,101179.75
2023-01-10T22:33:08.761Z,101169.56
2023-01-10T22:37:10.184Z,101160.66
2023-01-10T22:41:16.259Z,101161.75
2023-01-10T22:45:18.477Z,101169.88
2023-01-10T22:49:20.816Z,101158.69
2023-01-10T22:53:22.323Z,101163.69
2023-01-10T22:57:23.809Z,101153.84
2023-01-10T23:01:26.174Z,101148.66
2023-01-10T23:05:27.726Z,101145.50
2023-01-10T23:09:29.172Z,101133.00
2023-01-10T23:13:30.884Z,101117.91
2023-01-10T23:17:32.441Z,101117.53
2023-01-10T23:21:33.857Z,101113.16
2023-01-10T23:25:36.142Z,101114.69
2023-01-10T23:29:37.599Z,101114.59
2023-01-10T23:33:39.095Z,101098.31
2023-01-10T23:37:40.591Z,101093.44
2023-01-10T23:41:42.011Z,101084.53
2023-01-10T23:45:44.149Z,101080.28
2023-01-10T23:49:45.590Z,101068.31
2023-01-10T23:53:47.040Z,101068.69
2023-01-10T23:57:48.525Z,101053.97
